createdAt,value
2017-05-30T00:00:53.606Z,49.6
2017-05-30T00:02:03.563Z,49.7
2017-05-30T00:03:13.519Z,49.7
2017-05-30T00:04:23.786Z,49.8
2017-05-30T00:05:34.056Z,49.9
2017-05-30T00:06:44.014Z,49.9
2017-05-30T00:07:53.717Z,50.09
2017-05-30T00:09:03.989Z,50.18
2017-05-30T00:10:13.942Z,50.09
2017-05-30T00:11:24.215Z,49.9
2017-05-30T00:12:34.487Z,49.99
2017-05-30T00:13:43.821Z,49.9
2017-05-30T00:14:53.851Z,50.18
2017-05-30T00:16:04.108Z,50.18
2017-05-30T00:17:14.062Z,50.38
2017-05-30T00:18:24.021Z,50.18
2017-05-30T00:19:33.969Z,50.57
2017-05-30T00:20:43.928Z,50.96
2017-05-30T00:21:54.198Z,50.38
2017-05-30T00:23:04.156Z,50.48
2017-05-30T00:24:14.425Z,50.57
2017-05-30T00:25:24.693Z,50.57
2017-05-30T00:26:34.643Z,50.67
2017-05-30T00:27:44.914Z,50.48
2017-05-30T00:28:55.183Z,50.96
2017-05-30T00:30:05.145Z,50.67
2017-05-30T00:31:15.161Z,50.09
2017-05-30T00:32:25.437Z,50.67
2017-05-30T00:33:35.706Z,50.67
2017-05-30T00:34:45.357Z,51.06
2017-05-30T00:35:54.998Z,50.45
2017-05-30T00:37:04.321Z,50.55
2017-05-30T00:38:13.644Z,50.93
2017-05-30T00:39:23.917Z,50.76
2017-05-30T00:40:34.182Z,50.84
2017-05-30T00:41:44.136Z,51.03
2017-05-30T00:42:54.404Z,50.76
2017-05-30T00:44:04.676Z,51.06
2017-05-30T00:45:14.006Z,50.48
2017-05-30T00:46:24.281Z,50.67
2017-05-30T00:47:34.239Z,50.86
2017-05-30T00:48:43.875Z,50.96
2017-05-30T00:49:53.848Z,51.15
2017-05-30T00:51:04.122Z,51.32
2017-05-30T00:52:14.079Z,50.74
2017-05-30T00:53:24.034Z,50.93
2017-05-30T00:54:33.987Z,51.32
2017-05-30T00:55:44.258Z,50.93
2017-05-30T00:56:54.218Z,51.23
2017-05-30T00:58:04.493Z,51.03
2017-05-30T00:59:14.447Z,51.51
2017-05-30T01:00:24.721Z,51.23
2017-05-30T01:01:34.671Z,50.84
2017-05-30T01:02:44.617Z,51.32
2017-05-30T01:03:54.577Z,51.25
2017-05-30T01:05:04.535Z,51.25
2017-05-30T01:06:14.179Z,51.23
2017-05-30T01:07:24.455Z,50.86
2017-05-30T01:08:34.436Z,51.13
2017-05-30T01:09:44.386Z,51.35
2017-05-30T01:10:54.025Z,51.23
2017-05-30T01:12:04.291Z,51.13
2017-05-30T01:13:14.250Z,51.35
2017-05-30T01:14:24.536Z,51.13
2017-05-30T01:15:34.489Z,51.23
2017-05-30T01:16:44.439Z,51.03
2017-05-30T01:17:54.719Z,51.03
2017-05-30T01:19:04.990Z,51.06
2017-05-30T01:20:14.626Z,51.23
2017-05-30T01:21:24.601Z,51.23
2017-05-30T01:22:34.566Z,51.61
2017-05-30T01:23:44.838Z,51.23
2017-05-30T01:24:55.116Z,51.23
2017-05-30T01:26:05.073Z,51.32
2017-05-30T01:27:15.027Z,50.86
2017-05-30T01:28:24.988Z,51.71
2017-05-30T01:29:34.628Z,51.32
2017-05-30T01:30:44.897Z,51.9
2017-05-30T01:31:55.174Z,51.23
2017-05-30T01:33:05.437Z,51.61
2017-05-30T01:34:14.765Z,51.71
2017-05-30T01:35:24.424Z,51.81
2017-05-30T01:36:34.381Z,51.81
2017-05-30T01:37:44.338Z,51.32
2017-05-30T01:38:53.992Z,51.51
2017-05-30T01:40:03.640Z,51.71
2017-05-30T01:41:13.911Z,51.81
2017-05-30T01:42:24.178Z,51.71
2017-05-30T01:43:33.817Z,51.81
2017-05-30T01:44:43.773Z,51.9
2017-05-30T01:45:54.079Z,52.09
2017-05-30T01:47:04.038Z,51.81
2017-05-30T01:48:14.307Z,51.81
2017-05-30T01:49:24.272Z,51.23
2017-05-30T01:50:34.553Z,51.73
2017-05-30T01:51:44.818Z,51.54
2017-05-30T01:52:54.454Z,52
2017-05-30T01:54:04.106Z,51.9
2017-05-30T01:55:14.067Z,51.93
2017-05-30T01:56:24.022Z,52.58
2017-05-30T01:57:34.289Z,52.29
2017-05-30T01:58:43.939Z,52.19
2017-05-30T01:59:54.214Z,52.09
2017-05-30T02:01:04.519Z,52
2017-05-30T02:02:14.474Z,52.29
2017-05-30T02:03:24.121Z,52.48
2017-05-30T02:04:33.760Z,52.09
2017-05-30T02:05:44.024Z,52.29
2017-05-30T02:06:53.983Z,52.19
2017-05-30T02:08:04.274Z,52.39
2017-05-30T02:09:14.232Z,52.19
2017-05-30T02:10:24.511Z,52.39
2017-05-30T02:11:34.465Z,52.39
2017-05-30T02:12:44.733Z,52.67
2017-05-30T02:13:54.694Z,52.39
2017-05-30T02:15:04.961Z,52.39
2017-05-30T02:16:15.231Z,52.67
2017-05-30T02:17:24.874Z,52.48
2017-05-30T02:18:35.148Z,52.29
2017-05-30T02:19:45.113Z,52.39
2017-05-30T02:20:55.072Z,52.48
2017-05-30T02:22:05.027Z,52.09
2017-05-30T02:23:14.975Z,51.81
2017-05-30T02:24:24.928Z,51.81
2017-05-30T02:25:34.648Z,51.81
2017-05-30T02:26:44.291Z,52.39
2017-05-30T02:27:54.561Z,52.19
2017-05-30T02:29:04.578Z,52.19
2017-05-30T02:30:14.847Z,52.87
2017-05-30T02:31:25.117Z,52.48
2017-05-30T02:32:34.815Z,52.97
2017-05-30T02:33:44.771Z,52.39
2017-05-30T02:34:54.724Z,52.29
2017-05-30T02:36:04.393Z,52.29
2017-05-30T02:37:14.349Z,52.48
2017-05-30T02:38:24.301Z,52.19
2017-05-30T02:39:34.311Z,52.48
2017-05-30T02:40:44.290Z,52.29
2017-05-30T02:41:54.241Z,52.67
2017-05-30T02:43:03.878Z,52.29
2017-05-30T02:44:13.839Z,52.48
2017-05-30T02:45:23.796Z,52.58
2017-05-30T02:46:34.061Z,52.48
2017-05-30T02:47:43.702Z,52.39
2017-05-30T02:48:53.342Z,52.39
2017-05-30T02:50:02.984Z,52.77
2017-05-30T02:51:12.942Z,52.77
2017-05-30T02:52:22.908Z,52.77
2017-05-30T02:53:32.548Z,52.77
2017-05-30T02:54:42.187Z,52
2017-05-30T02:55:52.465Z,52.19
2017-05-30T02:57:02.420Z,52.48
2017-05-30T02:58:12.698Z,52.48
2017-05-30T02:59:22.681Z,52.48
2017-05-30T03:00:32.955Z,52.39
2017-05-30T03:01:42.911Z,52.39
2017-05-30T03:02:52.547Z,52.77
2017-05-30T03:04:02.506Z,52.67
2017-05-30T03:05:12.777Z,52.39
2017-05-30T03:06:23.049Z,52.29
2017-05-30T03:07:33.005Z,52.29
2017-05-30T03:08:42.957Z,52.19
2017-05-30T03:09:53.228Z,52.77
2017-05-30T03:11:03.515Z,52.19
2017-05-30T03:12:13.463Z,52.48
2017-05-30T03:13:23.416Z,52.39
2017-05-30T03:14:33.436Z,52.39
2017-05-30T03:15:43.705Z,52.48
2017-05-30T03:16:53.661Z,52.29
2017-05-30T03:18:03.993Z,52.39
2017-05-30T03:19:13.642Z,52.48
2017-05-30T03:20:23.908Z,52.48
2017-05-30T03:21:33.859Z,52.58
2017-05-30T03:22:44.129Z,52.09
2017-05-30T03:23:54.395Z,51.9
2017-05-30T03:25:04.670Z,51.9
2017-05-30T03:26:14.626Z,51.9
2017-05-30T03:27:24.270Z,52
2017-05-30T03:28:34.537Z,52.09
2017-05-30T03:29:44.808Z,52.09
2017-05-30T03:30:55.080Z,52
2017-05-30T03:32:05.349Z,52.58
2017-05-30T03:33:15.305Z,52.29
2017-05-30T03:34:25.598Z,52.39
2017-05-30T03:35:35.867Z,52.48
2017-05-30T03:36:46.141Z,52.48
2017-05-30T03:37:56.428Z,52.48
2017-05-30T03:39:06.696Z,52.29
2017-05-30T03:40:16.650Z,52.58
2017-05-30T03:41:26.290Z,52.29
2017-05-30T03:42:35.929Z,52.09
2017-05-30T03:43:46.211Z,52.48
2017-05-30T03:44:56.160Z,52.58
2017-05-30T03:46:05.803Z,52.39
2017-05-30T03:47:16.073Z,52.29
2017-05-30T03:48:25.716Z,52.29
2017-05-30T03:49:35.984Z,52.39
2017-05-30T03:50:46.255Z,52.29
2017-05-30T03:51:56.216Z,52.29
2017-05-30T03:53:06.490Z,52.48
2017-05-30T03:54:16.756Z,52.87
2017-05-30T03:55:26.089Z,52.67
2017-05-30T03:56:36.045Z,52.48
2017-05-30T03:57:45.693Z,52.77
2017-05-30T03:58:55.667Z,52.58
2017-05-30T04:00:05.939Z,52.58
2017-05-30T04:01:16.213Z,52.77
2017-05-30T04:02:26.490Z,52.48
2017-05-30T04:03:36.448Z,52.48
2017-05-30T04:04:46.732Z,52.58
2017-05-30T04:05:57.065Z,53.06
2017-05-30T04:07:07.332Z,53.16
2017-05-30T04:08:16.660Z,52.97
2017-05-30T04:09:26.627Z,53.25
2017-05-30T04:10:36.584Z,53.06
2017-05-30T04:11:45.600Z,53.06
2017-05-30T04:12:55.870Z,53.25
2017-05-30T04:14:06.141Z,53.06
2017-05-30T04:15:16.096Z,53.25
2017-05-30T04:16:26.371Z,53.16
2017-05-30T04:17:36.325Z,52.97
2017-05-30T04:18:45.964Z,52.97
2017-05-30T04:19:55.915Z,53.35
2017-05-30T04:21:06.181Z,52.77
2017-05-30T04:22:15.816Z,52.97
2017-05-30T04:23:26.086Z,52.77
2017-05-30T04:24:35.436Z,52.67
2017-05-30T04:25:45.716Z,52.77
2017-05-30T04:26:55.362Z,52.67
2017-05-30T04:28:05.318Z,52.97
2017-05-30T04:29:15.599Z,53.06
2017-05-30T04:30:25.564Z,53.16
2017-05-30T04:31:35.518Z,52.77
2017-05-30T04:32:45.473Z,52.97
2017-05-30T04:33:55.429Z,53.25
2017-05-30T04:35:05.701Z,53.25
2017-05-30T04:36:15.970Z,53.16
2017-05-30T04:37:26.242Z,53.16
2017-05-30T04:38:36.209Z,53.16
2017-05-30T04:39:46.170Z,53.35
2017-05-30T04:40:56.434Z,52.67
2017-05-30T04:42:06.705Z,53.45
2017-05-30T04:43:16.034Z,53.06
2017-05-30T04:44:25.993Z,52.97
2017-05-30T04:45:36.262Z,52.97
2017-05-30T04:46:46.529Z,52.77
2017-05-30T04:47:56.485Z,52.87
2017-05-30T04:49:06.128Z,53.16
2017-05-30T04:50:16.400Z,52.77
2017-05-30T04:51:26.041Z,53.35
2017-05-30T04:52:36.306Z,52.97
2017-05-30T04:53:45.954Z,53.35
2017-05-30T04:54:56.229Z,53.06
2017-05-30T04:56:06.187Z,52.77
2017-05-30T04:57:16.463Z,53.06
2017-05-30T04:58:26.734Z,53.25
2017-05-30T04:59:37.009Z,53.16
2017-05-30T05:00:46.651Z,53.35
2017-05-30T05:01:56.927Z,52.87
2017-05-30T05:03:06.896Z,52.87
2017-05-30T05:04:17.166Z,52.97
2017-05-30T05:05:27.442Z,53.35
2017-05-30T05:06:37.086Z,53.16
2017-05-30T05:07:47.044Z,52.87
2017-05-30T05:08:57.332Z,53.06
2017-05-30T05:10:06.966Z,53.16
2017-05-30T05:11:17.238Z,53.16
2017-05-30T05:12:27.195Z,53.16
2017-05-30T05:13:37.466Z,53.16
2017-05-30T05:14:47.123Z,53.06
2017-05-30T05:15:57.076Z,53.35
2017-05-30T05:17:07.041Z,53.25
2017-05-30T05:18:17.310Z,53.06
2017-05-30T05:19:26.951Z,52.77
2017-05-30T05:20:37.228Z,52.97
2017-05-30T05:21:46.546Z,53.06
2017-05-30T05:22:56.809Z,53.16
2017-05-30T05:24:06.448Z,52.87
2017-05-30T05:25:16.406Z,52.58
2017-05-30T05:26:26.362Z,52.58
2017-05-30T05:27:36.314Z,52.97
2017-05-30T05:28:46.275Z,52.09
2017-05-30T05:29:56.559Z,53.06
2017-05-30T05:31:06.526Z,53.25
2017-05-30T05:32:16.817Z,53.74
2017-05-30T05:33:26.775Z,52.77
2017-05-30T05:34:37.043Z,53.06
2017-05-30T05:35:47.320Z,53.16
2017-05-30T05:36:57.617Z,52.77
2017-05-30T05:38:07.562Z,52.87
2017-05-30T05:39:17.209Z,52.67
2017-05-30T05:40:27.487Z,52.58
2017-05-30T05:41:37.441Z,52.87
2017-05-30T05:42:47.721Z,52.77
2017-05-30T05:43:57.987Z,52.29
2017-05-30T05:45:07.627Z,52.09
2017-05-30T05:46:17.580Z,52.12
2017-05-30T05:47:26.903Z,52.89
2017-05-30T05:48:36.861Z,52.8
2017-05-30T05:49:46.812Z,52.97
2017-05-30T05:50:56.764Z,53.16
2017-05-30T05:52:06.721Z,53.25
2017-05-30T05:53:16.674Z,52.87
2017-05-30T05:54:26.314Z,53.16
2017-05-30T05:55:36.293Z,53.16
2017-05-30T05:56:46.246Z,52.77
2017-05-30T05:57:56.202Z,53.25
2017-05-30T05:59:06.162Z,52.87
2017-05-30T06:00:15.803Z,52.97
2017-05-30T06:01:25.760Z,53.16
2017-05-30T06:02:35.713Z,53.35
2017-05-30T06:03:45.980Z,52.58
2017-05-30T06:04:56.252Z,52.67
2017-05-30T06:06:06.220Z,52.67
2017-05-30T06:07:16.490Z,52.61
2017-05-30T06:08:26.446Z,52.77
2017-05-30T06:09:36.727Z,52.77
2017-05-30T06:10:46.994Z,52.67
2017-05-30T06:11:56.633Z,52.97
2017-05-30T06:13:06.591Z,52.31
2017-05-30T06:14:16.551Z,52.22
2017-05-30T06:15:26.814Z,52.61
2017-05-30T06:16:36.522Z,52.22
2017-05-30T06:17:46.793Z,53.09
2017-05-30T06:18:56.751Z,52.22
2017-05-30T06:20:07.024Z,52.12
2017-05-30T06:21:16.975Z,52.31
2017-05-30T06:22:27.246Z,52.12
2017-05-30T06:23:36.883Z,52.61
2017-05-30T06:24:46.523Z,52.12
2017-05-30T06:25:56.480Z,52.41
2017-05-30T06:27:06.124Z,52.61
2017-05-30T06:28:16.074Z,52.51
2017-05-30T06:29:26.340Z,52.51
2017-05-30T06:30:35.981Z,52.41
2017-05-30T06:31:46.254Z,52.61
2017-05-30T06:32:56.211Z,52.51
2017-05-30T06:34:05.849Z,52.61
2017-05-30T06:35:15.805Z,52.31
2017-05-30T06:36:25.143Z,52.61
2017-05-30T06:37:35.091Z,52.22
2017-05-30T06:38:45.052Z,52.31
2017-05-30T06:39:55.339Z,52.61
2017-05-30T06:41:05.614Z,51.93
2017-05-30T06:42:15.882Z,51.83
2017-05-30T06:43:26.152Z,51.64
2017-05-30T06:44:36.166Z,51.64
2017-05-30T06:45:46.442Z,52.12
2017-05-30T06:46:56.714Z,51.73
2017-05-30T06:48:06.986Z,52.22
2017-05-30T06:49:16.710Z,52.12
2017-05-30T06:50:26.876Z,51.83
2017-05-30T06:51:37.380Z,51.73
2017-05-30T06:52:47.651Z,51.73
2017-05-30T06:53:57.607Z,51.73
2017-05-30T06:55:07.249Z,51.83
2017-05-30T06:56:17.523Z,52.12
2017-05-30T06:57:27.788Z,51.95
2017-05-30T06:58:37.429Z,51.93
2017-05-30T06:59:47.384Z,51.86
2017-05-30T07:00:57.030Z,52.02
2017-05-30T07:02:06.989Z,51.93
2017-05-30T07:03:16.945Z,52.41
2017-05-30T07:04:26.905Z,52.02
2017-05-30T07:05:37.179Z,52.61
2017-05-30T07:06:47.128Z,53.09
2017-05-30T07:07:56.454Z,52.41
2017-05-30T07:09:05.787Z,52.89
2017-05-30T07:10:16.055Z,52.31
2017-05-30T07:11:25.691Z,52.31
2017-05-30T07:12:35.653Z,52.8
2017-05-30T07:13:45.617Z,52.12
2017-05-30T07:14:55.893Z,52.89
2017-05-30T07:16:06.229Z,52.51
2017-05-30T07:17:16.447Z,52.61
2017-05-30T07:18:26.403Z,52.99
2017-05-30T07:19:36.674Z,52.22
2017-05-30T07:20:46.947Z,52.51
2017-05-30T07:21:56.904Z,52.51
2017-05-30T07:23:06.868Z,52.61
2017-05-30T07:24:16.506Z,52.99
2017-05-30T07:25:26.771Z,52.8
2017-05-30T07:26:37.047Z,52.99
2017-05-30T07:27:47.318Z,52.63
2017-05-30T07:28:56.352Z,52.41
2017-05-30T07:30:06.319Z,52.12
2017-05-30T07:31:16.593Z,52.51
2017-05-30T07:32:26.873Z,52.61
2017-05-30T07:33:36.200Z,52.22
2017-05-30T07:34:45.845Z,52.89
2017-05-30T07:35:55.490Z,52.12
2017-05-30T07:37:05.444Z,53.19
2017-05-30T07:38:15.711Z,52.31
2017-05-30T07:39:26.004Z,52.89
2017-05-30T07:40:35.969Z,52.41
2017-05-30T07:41:46.235Z,52.12
2017-05-30T07:42:55.882Z,52.44
2017-05-30T07:44:05.840Z,52.63
2017-05-30T07:45:15.168Z,52.53
2017-05-30T07:46:25.126Z,52.41
2017-05-30T07:47:34.763Z,52.82
2017-05-30T07:48:44.722Z,52.7
2017-05-30T07:49:55.001Z,52.7
2017-05-30T07:51:04.958Z,53.19
2017-05-30T07:52:14.902Z,52.99
2017-05-30T07:53:25.176Z,53.19
2017-05-30T07:54:35.134Z,53.19
2017-05-30T07:55:44.142Z,52.22
2017-05-30T07:56:54.412Z,52.44
2017-05-30T07:58:04.686Z,52.8
2017-05-30T07:59:14.323Z,52.63
2017-05-30T08:00:23.967Z,52.61
2017-05-30T08:01:34.233Z,52.82
2017-05-30T08:02:43.878Z,52.14
2017-05-30T08:03:53.205Z,52.34
2017-05-30T08:05:03.485Z,52.63
2017-05-30T08:06:13.438Z,52.14
2017-05-30T08:07:23.384Z,52.53
2017-05-30T08:08:33.651Z,52.53
2017-05-30T08:09:43.666Z,52.24
2017-05-30T08:10:53.303Z,52.14
2017-05-30T08:12:02.946Z,52.05
2017-05-30T08:13:12.899Z,52.53
2017-05-30T08:14:22.574Z,52.44
2017-05-30T08:15:32.217Z,52.05
2017-05-30T08:16:42.493Z,52.24
2017-05-30T08:17:52.149Z,52.34
2017-05-30T08:19:02.439Z,52.63
2017-05-30T08:20:12.392Z,52.82
2017-05-30T08:21:22.341Z,52.92
2017-05-30T08:22:32.307Z,53.11
2017-05-30T08:23:42.580Z,52.44
2017-05-30T08:24:52.536Z,52.44
2017-05-30T08:26:02.810Z,52.53
2017-05-30T08:27:12.450Z,52.53
2017-05-30T08:28:22.404Z,52.73
2017-05-30T08:29:32.044Z,52.44
2017-05-30T08:30:42.323Z,52.34
2017-05-30T08:31:52.594Z,53.02
2017-05-30T08:33:02.554Z,52.53
2017-05-30T08:34:12.194Z,52.63
2017-05-30T08:35:22.477Z,52.44
2017-05-30T08:36:32.118Z,52.53
2017-05-30T08:37:41.769Z,52.63
2017-05-30T08:38:51.724Z,51.86
2017-05-30T08:40:01.367Z,52.14
2017-05-30T08:41:11.632Z,52.24
2017-05-30T08:42:21.902Z,52.82
2017-05-30T08:43:31.912Z,53.41
2017-05-30T08:44:41.869Z,53.11
2017-05-30T08:45:51.509Z,52.73
2017-05-30T08:47:01.151Z,53.02
2017-05-30T08:48:11.110Z,52.92
2017-05-30T08:49:21.070Z,53.02
2017-05-30T08:50:31.021Z,52.92
2017-05-30T08:51:40.665Z,52.92
2017-05-30T08:52:50.307Z,52.44
2017-05-30T08:53:59.949Z,52.92
2017-05-30T08:55:09.598Z,52.92
2017-05-30T08:56:19.870Z,53.02
2017-05-30T08:57:29.828Z,53.02
2017-05-30T08:58:39.791Z,52.92
2017-05-30T08:59:49.429Z,53.11
2017-05-30T09:00:59.077Z,52.92
2017-05-30T09:02:09.025Z,52.73
2017-05-30T09:03:18.981Z,52.63
2017-05-30T09:04:29.254Z,53.11
2017-05-30T09:05:38.905Z,53.02
2017-05-30T09:06:48.543Z,53.11
2017-05-30T09:07:57.870Z,52.73
2017-05-30T09:09:07.836Z,52.14
2017-05-30T09:10:16.533Z,52.92
2017-05-30T09:11:26.798Z,52.82
2017-05-30T09:12:36.437Z,52.63
2017-05-30T09:13:46.702Z,52.44
2017-05-30T09:14:56.974Z,52.44
2017-05-30T09:16:07.248Z,52.73
2017-05-30T09:17:17.259Z,52.44
2017-05-30T09:18:27.224Z,53.02
2017-05-30T09:19:36.861Z,52.73
2017-05-30T09:20:47.131Z,52.63
2017-05-30T09:21:56.144Z,52.73
2017-05-30T09:23:06.104Z,52.73
2017-05-30T09:24:16.376Z,52.63
2017-05-30T09:25:26.330Z,52.24
2017-05-30T09:26:36.606Z,52.53
2017-05-30T09:27:46.879Z,52.44
2017-05-30T09:28:57.156Z,52.63
2017-05-30T09:30:07.107Z,52.92
2017-05-30T09:31:17.059Z,53.02
2017-05-30T09:32:27.022Z,52.63
2017-05-30T09:33:36.975Z,52.63
2017-05-30T09:34:47.250Z,52.14
2017-05-30T09:35:57.527Z,52.34
2017-05-30T09:37:07.165Z,52.53
2017-05-30T09:38:16.491Z,52.63
2017-05-30T09:39:26.469Z,52.63
2017-05-30T09:40:36.740Z,52.34
2017-05-30T09:41:46.692Z,52.24
2017-05-30T09:42:56.639Z,52.53
2017-05-30T09:44:06.908Z,52.53
2017-05-30T09:45:17.182Z,52.63
2017-05-30T09:46:27.135Z,52.53
2017-05-30T09:47:37.398Z,52.82
2017-05-30T09:48:47.040Z,52.34
2017-05-30T09:49:56.682Z,52.44
2017-05-30T09:51:06.318Z,52.63
2017-05-30T09:52:15.958Z,52.63
2017-05-30T09:53:25.912Z,52.73
2017-05-30T09:54:35.883Z,52.53
2017-05-30T09:55:46.147Z,52.53
2017-05-30T09:56:55.786Z,53.02
2017-05-30T09:58:04.796Z,52.24
2017-05-30T09:59:14.751Z,52.63
2017-05-30T10:00:25.017Z,52.34
2017-05-30T10:01:34.653Z,52.63
2017-05-30T10:02:44.612Z,52.92
2017-05-30T10:03:54.878Z,52.92
2017-05-30T10:05:04.833Z,52.34
2017-05-30T10:06:14.788Z,52.14
2017-05-30T10:07:25.053Z,52.34
2017-05-30T10:08:35.328Z,52.44
2017-05-30T10:09:45.282Z,52.44
2017-05-30T10:10:55.540Z,52.92
2017-05-30T10:12:05.489Z,52.82
2017-05-30T10:13:14.814Z,52.63
2017-05-30T10:14:24.770Z,52.24
2017-05-30T10:15:34.721Z,52.24
2017-05-30T10:16:44.359Z,52.73
2017-05-30T10:17:54.622Z,52.73
2017-05-30T10:19:04.580Z,52.92
2017-05-30T10:20:14.536Z,52.63
2017-05-30T10:21:24.487Z,52.53
2017-05-30T10:22:34.445Z,52.53
2017-05-30T10:23:44.400Z,52.82
2017-05-30T10:24:54.035Z,52.82
2017-05-30T10:26:03.674Z,52.73
2017-05-30T10:27:13.935Z,52.92
2017-05-30T10:28:23.257Z,53.11
2017-05-30T10:29:33.207Z,53.11
2017-05-30T10:30:43.482Z,52.73
2017-05-30T10:31:53.745Z,52.63
2017-05-30T10:33:03.700Z,52.82
2017-05-30T10:34:13.333Z,52.73
2017-05-30T10:35:23.603Z,52.73
2017-05-30T10:36:33.557Z,52.34
2017-05-30T10:37:43.201Z,52.44
2017-05-30T10:38:52.835Z,52.73
2017-05-30T10:40:03.107Z,52.82
2017-05-30T10:41:12.756Z,52.44
2017-05-30T10:42:23.040Z,52.73
2017-05-30T10:43:33.316Z,52.34
2017-05-30T10:44:43.583Z,52.92
2017-05-30T10:45:53.534Z,53.02
2017-05-30T10:47:03.490Z,53.02
2017-05-30T10:48:13.769Z,52.73
2017-05-30T10:49:24.037Z,52.53
2017-05-30T10:50:33.674Z,52.63
2017-05-30T10:51:43.001Z,52.73
2017-05-30T10:52:52.967Z,52.63
2017-05-30T10:54:02.624Z,52.82
2017-05-30T10:55:11.945Z,52.82
2017-05-30T10:56:21.585Z,52.82
2017-05-30T10:57:31.556Z,53.11
2017-05-30T10:58:41.509Z,53.02
2017-05-30T10:59:51.464Z,52.63
2017-05-30T11:01:01.107Z,52.82
2017-05-30T11:02:11.062Z,53.11
2017-05-30T11:03:20.700Z,52.63
2017-05-30T11:04:30.652Z,52.82
2017-05-30T11:05:40.602Z,52.63
2017-05-30T11:06:50.867Z,52.73
2017-05-30T11:08:01.134Z,53.11
2017-05-30T11:09:11.407Z,53.02
2017-05-30T11:10:20.783Z,53.02
2017-05-30T11:11:31.056Z,52.92
2017-05-30T11:12:41.006Z,52.73
2017-05-30T11:13:51.280Z,52.92
2017-05-30T11:15:01.559Z,52.92
2017-05-30T11:16:11.828Z,52.82
2017-05-30T11:17:22.095Z,53.5
2017-05-30T11:18:31.731Z,53.5
2017-05-30T11:19:41.686Z,53.59
2017-05-30T11:20:51.010Z,53.69
2017-05-30T11:22:00.966Z,53.31
2017-05-30T11:23:10.920Z,53.5
2017-05-30T11:24:19.990Z,53.21
2017-05-30T11:25:29.624Z,53.41
2017-05-30T11:26:39.577Z,53.41
2017-05-30T11:27:49.532Z,53.02
2017-05-30T11:28:59.796Z,53.5
2017-05-30T11:30:09.433Z,53.21
2017-05-30T11:31:19.379Z,53.41
2017-05-30T11:32:29.024Z,53.02
2017-05-30T11:33:39.311Z,53.21
2017-05-30T11:34:49.298Z,52.82
2017-05-30T11:35:59.256Z,52.82
2017-05-30T11:37:09.548Z,52.82
2017-05-30T11:38:19.189Z,52.92
2017-05-30T11:39:28.821Z,53.21
2017-05-30T11:40:38.785Z,53.79
2017-05-30T11:41:48.735Z,53.21
2017-05-30T11:42:58.690Z,52.73
2017-05-30T11:44:08.640Z,53.02
2017-05-30T11:45:18.594Z,53.02
2017-05-30T11:46:28.874Z,53.79
2017-05-30T11:47:39.138Z,53.79
2017-05-30T11:48:49.174Z,53.41
2017-05-30T11:49:59.465Z,53.21
2017-05-30T11:51:09.418Z,52.82
2017-05-30T11:52:19.373Z,53.79
2017-05-30T11:53:29.330Z,53.41
2017-05-30T11:54:39.609Z,53.79
2017-05-30T11:55:49.565Z,53.5
2017-05-30T11:56:59.896Z,53.79
2017-05-30T11:58:09.220Z,53.79
2017-05-30T11:59:18.859Z,53.79
2017-05-30T12:00:28.502Z,53.31
2017-05-30T12:01:38.148Z,53.41
2017-05-30T12:02:48.409Z,54.66
2017-05-30T12:03:58.679Z,53.69
2017-05-30T12:05:08.952Z,54.08
2017-05-30T12:06:19.218Z,53.5
2017-05-30T12:07:29.491Z,53.89
2017-05-30T12:08:39.759Z,53.99
2017-05-30T12:09:49.708Z,53.89
2017-05-30T12:10:59.976Z,53.79
2017-05-30T12:12:09.619Z,53.99
2017-05-30T12:13:19.573Z,53.69
2017-05-30T12:14:29.210Z,53.69
2017-05-30T12:15:39.167Z,53.41
2017-05-30T12:16:49.434Z,53.79
2017-05-30T12:17:59.706Z,53.79
2017-05-30T12:19:09.972Z,53.79
2017-05-30T12:20:20.231Z,53.5
2017-05-30T12:21:29.868Z,53.5
2017-05-30T12:22:40.142Z,53.59
2017-05-30T12:23:49.789Z,53.5
2017-05-30T12:24:59.425Z,53.31
2017-05-30T12:26:09.061Z,53.69
2017-05-30T12:27:19.014Z,53.31
2017-05-30T12:28:29.280Z,53.89
2017-05-30T12:29:38.919Z,53.99
2017-05-30T12:30:49.187Z,53.59
2017-05-30T12:31:59.471Z,53.89
2017-05-30T12:33:09.768Z,53.59
2017-05-30T12:34:19.719Z,53.59
2017-05-30T12:35:29.359Z,53.59
2017-05-30T12:36:39.323Z,53.41
2017-05-30T12:37:49.283Z,53.31
2017-05-30T12:38:59.233Z,53.41
2017-05-30T12:40:08.557Z,53.41
2017-05-30T12:41:18.506Z,53.59
2017-05-30T12:42:28.456Z,53.59
2017-05-30T12:43:38.099Z,53.59
2017-05-30T12:44:47.743Z,53.99
2017-05-30T12:45:57.384Z,54.95
2017-05-30T12:47:07.021Z,54.47
2017-05-30T12:48:16.342Z,53.89
2017-05-30T12:49:26.615Z,54.27
2017-05-30T12:50:35.933Z,53.59
2017-05-30T12:51:46.205Z,53.69
2017-05-30T12:52:56.474Z,54.08
2017-05-30T12:54:05.793Z,54.08
2017-05-30T12:55:15.428Z,54.27
2017-05-30T12:56:24.754Z,54.27
2017-05-30T12:57:35.042Z,54.57
2017-05-30T12:58:44.995Z,54.66
2017-05-30T12:59:54.628Z,54.37
2017-05-30T13:01:04.910Z,53.79
2017-05-30T13:02:14.861Z,54.37
2017-05-30T13:03:25.124Z,53.89
2017-05-30T13:04:34.775Z,53.99
2017-05-30T13:05:44.735Z,53.89
2017-05-30T13:06:54.363Z,53.59
2017-05-30T13:08:04.628Z,53.79
2017-05-30T13:09:13.954Z,53.89
2017-05-30T13:10:23.904Z,53.99
2017-05-30T13:11:34.180Z,53.69
2017-05-30T13:12:43.817Z,54.27
2017-05-30T13:13:53.757Z,54.47
2017-05-30T13:15:03.400Z,54.57
2017-05-30T13:16:13.354Z,53.99
2017-05-30T13:17:23.307Z,54.27
2017-05-30T13:18:33.290Z,53.89
2017-05-30T13:19:43.247Z,54.17
2017-05-30T13:20:53.520Z,53.89
2017-05-30T13:22:03.160Z,53.89
2017-05-30T13:23:13.426Z,54.08
2017-05-30T13:24:23.064Z,54.08
2017-05-30T13:25:32.387Z,53.79
2017-05-30T13:26:42.341Z,53.59
2017-05-30T13:27:52.621Z,53.99
2017-05-30T13:29:02.257Z,53.41
2017-05-30T13:30:11.891Z,53.79
2017-05-30T13:31:21.534Z,54.37
2017-05-30T13:32:31.495Z,54.47
2017-05-30T13:33:41.445Z,55.05
2017-05-30T13:34:51.400Z,55.15
2017-05-30T13:36:01.670Z,55.46
2017-05-30T13:37:11.629Z,54.39
2017-05-30T13:38:21.643Z,54.39
2017-05-30T13:39:31.283Z,54.79
2017-05-30T13:40:41.548Z,55.05
2017-05-30T13:41:51.186Z,54.17
2017-05-30T13:43:00.828Z,54.49
2017-05-30T13:44:10.779Z,56.02
2017-05-30T13:45:20.733Z,56.14
2017-05-30T13:46:30.382Z,54.88
2017-05-30T13:47:40.644Z,55.07
2017-05-30T13:48:50.602Z,55.07
2017-05-30T13:50:00.881Z,55.85
2017-05-30T13:51:10.520Z,55.34
2017-05-30T13:52:20.159Z,55.07
2017-05-30T13:53:29.864Z,55.15
2017-05-30T13:54:39.822Z,56.34
2017-05-30T13:55:49.783Z,55.46
2017-05-30T13:57:00.052Z,55.36
2017-05-30T13:58:10.321Z,56.14
2017-05-30T13:59:20.278Z,55.76
2017-05-30T14:00:30.548Z,55.66
2017-05-30T14:01:40.509Z,55.85
2017-05-30T14:02:50.772Z,54.85
2017-05-30T14:04:00.409Z,55.56
2017-05-30T14:05:10.666Z,54.79
2017-05-30T14:06:20.942Z,54.95
2017-05-30T14:07:31.206Z,55.92
2017-05-30T14:08:41.465Z,55.82
2017-05-30T14:09:51.428Z,55.92
2017-05-30T14:11:01.091Z,56.14
2017-05-30T14:12:11.047Z,56.11
2017-05-30T14:13:20.998Z,56.21
2017-05-30T14:14:31.261Z,55.92
2017-05-30T14:15:41.536Z,55.73
2017-05-30T14:16:51.183Z,55.73
2017-05-30T14:18:00.825Z,56.3
2017-05-30T14:19:10.776Z,55.73
2017-05-30T14:20:20.735Z,55.92
2017-05-30T14:21:30.688Z,56.21
2017-05-30T14:22:40.965Z,56.4
2017-05-30T14:23:51.236Z,55.82
2017-05-30T14:25:01.507Z,56.4
2017-05-30T14:26:11.683Z,55.53
2017-05-30T14:27:21.953Z,56.11
2017-05-30T14:28:31.955Z,55.43
2017-05-30T14:29:42.234Z,55.82
2017-05-30T14:30:52.286Z,56.02
2017-05-30T14:32:02.027Z,55.73
2017-05-30T14:33:12.020Z,56.21
2017-05-30T14:34:21.971Z,56.02
2017-05-30T14:35:31.616Z,55.82
2017-05-30T14:36:41.649Z,55.92
2017-05-30T14:37:51.291Z,55.92
2017-05-30T14:39:01.573Z,55.92
2017-05-30T14:40:11.594Z,55.92
2017-05-30T14:41:21.581Z,56.11
2017-05-30T14:42:31.535Z,56.3
2017-05-30T14:43:41.545Z,56.11
2017-05-30T14:44:51.816Z,55.82
2017-05-30T14:46:01.780Z,56.4
2017-05-30T14:47:11.470Z,56.21
2017-05-30T14:48:20.793Z,56.02
2017-05-30T14:49:30.746Z,56.02
2017-05-30T14:50:40.819Z,56.4
2017-05-30T14:51:51.113Z,56.11
2017-05-30T14:53:00.759Z,56.3
2017-05-30T14:54:10.748Z,56.3
2017-05-30T14:55:21.142Z,56.24
2017-05-30T14:56:30.782Z,56.11
2017-05-30T14:57:40.736Z,56.21
2017-05-30T14:58:51.012Z,56.21
2017-05-30T15:00:01.288Z,56.3
2017-05-30T15:01:10.923Z,56.11
2017-05-30T15:02:20.250Z,55.82
2017-05-30T15:03:29.892Z,55.82